createdAt,value
2018-08-25T00:00:07.024Z,2.20
2018-08-25T00:02:35.175Z,1.80
2018-08-25T00:05:03.346Z,1.90
2018-08-25T00:07:31.475Z,2.10
2018-08-25T00:09:59.609Z,2.10
2018-08-25T00:12:27.770Z,1.90
2018-08-25T00:14:55.886Z,2.50
2018-08-25T00:17:24.011Z,2.57
2018-08-25T00:19:52.216Z,2.20
2018-08-25T00:22:20.372Z,3.23
2018-08-25T00:24:48.524Z,2.40
2018-08-25T00:27:16.725Z,2.20
2018-08-25T00:29:44.879Z,2.20
2018-08-25T00:32:13.256Z,2.90
2018-08-25T00:34:41.435Z,2.90
2018-08-25T00:37:09.573Z,2.77
2018-08-25T00:39:37.695Z,2.33
2018-08-25T00:42:05.870Z,3.00
2018-08-25T00:44:36.117Z,3.40
2018-08-25T00:47:04.875Z,3.20
2018-08-25T00:49:33.043Z,2.97
2018-08-25T00:52:01.211Z,3.33
2018-08-25T00:54:29.378Z,2.80
2018-08-25T00:56:57.563Z,3.43
2018-08-25T00:59:25.952Z,3.47
2018-08-25T01:01:54.015Z,3.73
2018-08-25T01:04:22.231Z,3.40
2018-08-25T01:06:50.403Z,3.33
2018-08-25T01:09:18.552Z,3.47
2018-08-25T01:11:47.251Z,3.50
2018-08-25T01:14:15.524Z,4.80
2018-08-25T01:16:43.716Z,3.77
2018-08-25T01:19:11.871Z,4.30
2018-08-25T01:21:40.010Z,3.63
2018-08-25T01:24:08.207Z,3.93
2018-08-25T01:26:36.368Z,3.73
2018-08-25T01:29:04.707Z,5.00
2018-08-25T01:31:32.855Z,5.07
2018-08-25T01:34:01.918Z,3.10
2018-08-25T01:36:30.095Z,2.80
2018-08-25T01:38:58.891Z,3.40
2018-08-25T01:41:27.042Z,4.77
2018-08-25T01:43:55.550Z,5.47
2018-08-25T01:46:23.706Z,4.50
2018-08-25T01:48:51.889Z,4.60
2018-08-25T01:51:20.046Z,4.50
2018-08-25T01:53:48.241Z,5.13
2018-08-25T01:56:16.399Z,5.47
2018-08-25T01:58:44.767Z,4.80
2018-08-25T02:01:12.946Z,3.80
2018-08-25T02:03:41.095Z,4.73
2018-08-25T02:06:09.315Z,6.23
2018-08-25T02:08:37.454Z,7.73
2018-08-25T02:11:05.591Z,7.60
2018-08-25T02:13:33.730Z,7.70
2018-08-25T02:16:01.899Z,8.77
2018-08-25T02:18:30.281Z,10.60
2018-08-25T02:20:58.458Z,12.20
2018-08-25T02:23:26.636Z,12.27
2018-08-25T02:25:54.799Z,9.73
2018-08-25T02:28:22.996Z,9.30
2018-08-25T02:30:51.365Z,8.67
2018-08-25T02:33:19.529Z,6.00
2018-08-25T02:35:47.698Z,6.93
2018-08-25T02:38:15.857Z,8.40
2018-08-25T02:40:43.982Z,8.97
2018-08-25T02:43:12.128Z,9.27
2018-08-25T02:45:41.255Z,10.30
2018-08-25T02:48:09.402Z,11.87
2018-08-25T02:50:37.542Z,10.83
2018-08-25T02:53:05.851Z,10.10
2018-08-25T02:55:34.014Z,9.37
2018-08-25T02:58:02.185Z,8.67
2018-08-25T03:00:30.332Z,9.33
2018-08-25T03:02:58.571Z,10.00
2018-08-25T03:05:26.824Z,8.60
2018-08-25T03:07:54.998Z,7.40
2018-08-25T03:10:23.156Z,8.50
2018-08-25T03:12:51.330Z,11.47
2018-08-25T03:15:19.549Z,10.40
2018-08-25T03:17:47.690Z,13.83
2018-08-25T03:20:15.830Z,15.47
2018-08-25T03:22:43.966Z,11.77
2018-08-25T03:25:12.106Z,10.97
2018-08-25T03:27:40.252Z,10.37
2018-08-25T03:30:08.392Z,9.53
2018-08-25T03:32:36.643Z,8.57
2018-08-25T03:35:04.802Z,6.90
2018-08-25T03:37:32.912Z,5.43
2018-08-25T03:40:01.047Z,4.70
2018-08-25T03:42:29.179Z,4.13
2018-08-25T03:44:57.331Z,2.70
2018-08-25T03:47:25.534Z,2.80
2018-08-25T03:49:53.678Z,2.77
2018-08-25T03:52:22.597Z,2.73
2018-08-25T03:54:50.757Z,2.13
2018-08-25T03:57:18.915Z,2.83
2018-08-25T03:59:46.955Z,2.90
2018-08-25T04:02:15.024Z,2.47
2018-08-25T04:04:43.090Z,2.20
2018-08-25T04:07:11.158Z,2.60
2018-08-25T04:09:39.226Z,2.33
2018-08-25T04:12:07.302Z,1.90
2018-08-25T04:14:35.386Z,2.20
2018-08-25T04:17:03.447Z,1.90
2018-08-25T04:19:31.522Z,2.20
2018-08-25T04:21:59.599Z,1.80
2018-08-25T04:24:27.655Z,2.10
2018-08-25T04:26:55.762Z,2.23
2018-08-25T04:29:23.817Z,2.00
2018-08-25T04:31:51.879Z,2.10
2018-08-25T04:34:19.899Z,1.90
2018-08-25T04:36:47.936Z,2.17
2018-08-25T04:39:15.996Z,2.57
2018-08-25T04:41:44.059Z,2.80
2018-08-25T04:44:12.135Z,2.57
2018-08-25T04:46:40.155Z,3.20
2018-08-25T04:49:08.175Z,3.70
2018-08-25T04:51:36.224Z,3.50
2018-08-25T04:54:04.343Z,3.83
2018-08-25T04:56:32.409Z,2.90
2018-08-25T04:59:00.671Z,3.17
2018-08-25T05:01:28.755Z,3.70
2018-08-25T05:03:56.847Z,3.07
2018-08-25T05:06:25.099Z,3.30
2018-08-25T05:08:53.160Z,2.83
2018-08-25T05:11:21.219Z,3.27
2018-08-25T05:13:49.324Z,4.17
2018-08-25T05:16:17.363Z,3.93
2018-08-25T05:18:45.388Z,4.03
2018-08-25T05:21:13.495Z,4.00
2018-08-25T05:23:41.530Z,4.00
2018-08-25T05:26:09.644Z,5.30
2018-08-25T05:28:37.731Z,3.90
2018-08-25T05:31:05.794Z,4.90
2018-08-25T05:33:33.866Z,4.67
2018-08-25T05:36:01.952Z,4.57
2018-08-25T05:38:30.026Z,5.77
2018-08-25T05:40:58.098Z,4.80
2018-08-25T05:43:26.131Z,4.20
2018-08-25T05:45:54.223Z,4.53
2018-08-25T05:48:22.259Z,5.10
2018-08-25T05:50:50.308Z,6.20
2018-08-25T05:53:18.446Z,5.60
2018-08-25T05:55:46.536Z,5.10
2018-08-25T05:58:14.619Z,7.40
2018-08-25T06:00:42.681Z,7.00
2018-08-25T06:03:10.755Z,6.83
2018-08-25T06:05:38.766Z,5.53
2018-08-25T06:08:06.796Z,4.20
2018-08-25T06:10:34.999Z,4.87
2018-08-25T06:13:03.024Z,5.97
2018-08-25T06:15:31.091Z,5.17
2018-08-25T06:17:59.224Z,4.60
2018-08-25T06:20:27.252Z,4.73
2018-08-25T06:22:55.286Z,6.47
2018-08-25T06:25:23.319Z,7.17
2018-08-25T06:27:51.380Z,5.33
2018-08-25T06:30:19.530Z,4.60
2018-08-25T06:32:47.606Z,5.60
2018-08-25T06:35:15.656Z,3.73
2018-08-25T06:37:43.695Z,6.40
2018-08-25T06:40:11.739Z,7.70
2018-08-25T06:42:39.789Z,7.80
2018-08-25T06:45:07.856Z,7.07
2018-08-25T06:47:35.901Z,8.13
2018-08-25T06:50:03.995Z,8.73
2018-08-25T06:52:32.039Z,8.13
2018-08-25T06:55:00.595Z,8.43
2018-08-25T06:57:28.643Z,7.50
2018-08-25T06:59:56.696Z,8.20
2018-08-25T07:02:24.755Z,6.87
2018-08-25T07:04:52.782Z,8.33
2018-08-25T07:07:20.833Z,7.57
2018-08-25T07:09:48.868Z,5.33
2018-08-25T07:12:16.930Z,7.70
2018-08-25T07:14:44.991Z,5.27
2018-08-25T07:17:13.020Z,5.80
2018-08-25T07:19:41.143Z,5.40
2018-08-25T07:22:09.206Z,5.53
2018-08-25T07:24:37.294Z,5.10
2018-08-25T07:27:05.364Z,5.03
2018-08-25T07:29:33.491Z,5.57
2018-08-25T07:32:01.642Z,5.03
2018-08-25T07:34:29.737Z,4.00
2018-08-25T07:36:57.775Z,3.37
2018-08-25T07:39:25.871Z,4.40
2018-08-25T07:41:53.960Z,3.33
2018-08-25T07:44:22.011Z,3.10
2018-08-25T07:46:50.024Z,4.73
2018-08-25T07:49:18.155Z,3.07
2018-08-25T07:51:46.237Z,3.93
2018-08-25T07:54:14.260Z,3.37
2018-08-25T07:56:42.388Z,3.97
2018-08-25T07:59:10.462Z,4.57
2018-08-25T08:01:38.503Z,2.10
2018-08-25T08:04:06.557Z,2.80
2018-08-25T08:06:34.589Z,3.23
2018-08-25T08:09:02.628Z,2.20
2018-08-25T08:11:30.787Z,2.00
2018-08-25T08:13:58.931Z,2.13
2018-08-25T08:16:26.948Z,2.80
2018-08-25T08:18:54.995Z,2.23
2018-08-25T08:21:23.059Z,5.80
2018-08-25T08:23:51.114Z,4.03
2018-08-25T08:26:19.237Z,3.43
2018-08-25T08:28:47.378Z,3.03
2018-08-25T08:31:15.456Z,4.87
2018-08-25T08:33:43.475Z,3.43
2018-08-25T08:36:11.504Z,3.20
2018-08-25T08:38:39.893Z,3.03
2018-08-25T08:41:07.915Z,4.30
2018-08-25T08:43:36.220Z,3.30
2018-08-25T08:46:05.312Z,4.47
2018-08-25T08:48:33.340Z,4.47
2018-08-25T08:51:01.368Z,3.97
2018-08-25T08:53:29.420Z,3.10
2018-08-25T08:55:57.480Z,2.97
2018-08-25T08:58:25.633Z,2.37
2018-08-25T09:00:53.627Z,2.33
2018-08-25T09:03:21.711Z,2.10
2018-08-25T09:05:49.972Z,2.13
2018-08-25T09:08:18.146Z,2.00
2018-08-25T09:10:46.203Z,2.37
2018-08-25T09:13:14.282Z,2.13
2018-08-25T09:15:42.312Z,2.13
2018-08-25T09:18:10.360Z,1.77
2018-08-25T09:20:38.412Z,1.70
2018-08-25T09:23:06.435Z,2.03
2018-08-25T09:25:34.651Z,1.53
2018-08-25T09:28:02.815Z,1.50
2018-08-25T09:30:30.897Z,1.60
2018-08-25T09:32:58.922Z,1.57
2018-08-25T09:35:26.956Z,1.30
2018-08-25T09:37:54.979Z,1.40
2018-08-25T09:40:23.019Z,1.27
2018-08-25T09:42:51.256Z,1.23
2018-08-25T09:45:19.459Z,1.37
2018-08-25T09:47:47.561Z,1.50
2018-08-25T09:50:15.625Z,1.13
2018-08-25T09:52:43.707Z,1.40
2018-08-25T09:55:11.753Z,1.33
2018-08-25T09:57:39.779Z,1.13
2018-08-25T10:00:09.716Z,1.43
2018-08-25T10:02:37.736Z,1.73
2018-08-25T10:05:06.215Z,1.50
2018-08-25T10:07:34.251Z,1.80
2018-08-25T10:10:02.672Z,2.00
2018-08-25T10:12:30.712Z,2.33
2018-08-25T10:14:58.783Z,1.63
2018-08-25T10:17:26.797Z,2.47
2018-08-25T10:19:54.824Z,1.93
2018-08-25T10:22:23.326Z,1.50
2018-08-25T10:24:51.458Z,1.60
2018-08-25T10:27:19.483Z,2.60
2018-08-25T10:29:47.550Z,1.90
2018-08-25T10:32:15.651Z,2.13
2018-08-25T10:34:43.682Z,2.60
2018-08-25T10:37:11.856Z,2.77
2018-08-25T10:39:39.891Z,2.80
2018-08-25T10:42:08.008Z,2.90
2018-08-25T10:44:35.993Z,2.17
2018-08-25T10:47:04.008Z,2.30
2018-08-25T10:49:32.079Z,2.33
2018-08-25T10:52:00.182Z,1.80
2018-08-25T10:54:28.215Z,1.67
2018-08-25T10:56:56.266Z,2.00
2018-08-25T10:59:24.307Z,2.00
2018-08-25T11:01:52.341Z,2.33
2018-08-25T11:04:20.435Z,2.10
2018-08-25T11:06:48.591Z,1.73
2018-08-25T11:09:16.634Z,2.10
2018-08-25T11:11:44.711Z,2.00
2018-08-25T11:14:12.742Z,1.80
2018-08-25T11:16:40.794Z,1.93
2018-08-25T11:19:08.936Z,2.20
2018-08-25T11:21:36.954Z,2.00
2018-08-25T11:24:04.975Z,1.97
2018-08-25T11:26:33.011Z,2.30
2018-08-25T11:29:01.060Z,2.57
2018-08-25T11:31:29.083Z,2.00
2018-08-25T11:33:57.129Z,2.70
2018-08-25T11:36:25.163Z,2.03
2018-08-25T11:38:53.254Z,2.10
2018-08-25T11:41:21.386Z,2.13
2018-08-25T11:43:49.491Z,1.70
2018-08-25T11:46:17.517Z,2.10
2018-08-25T11:48:45.547Z,1.90
2018-08-25T11:51:13.655Z,1.63
2018-08-25T11:53:41.673Z,1.70
2018-08-25T11:56:09.710Z,1.83
2018-08-25T11:58:37.766Z,1.57
2018-08-25T12:01:05.803Z,1.40
2018-08-25T12:03:34.349Z,2.30
2018-08-25T12:06:02.285Z,2.13
2018-08-25T12:08:30.364Z,1.70
2018-08-25T12:10:58.445Z,2.10
2018-08-25T12:13:26.543Z,2.73
2018-08-25T12:15:54.587Z,2.30
2018-08-25T12:18:22.658Z,2.10
2018-08-25T12:20:50.830Z,2.00
2018-08-25T12:23:18.897Z,2.50
2018-08-25T12:25:46.936Z,2.33
2018-08-25T12:28:14.994Z,2.60
2018-08-25T12:30:43.074Z,2.43
2018-08-25T12:33:11.322Z,2.50
2018-08-25T12:35:39.340Z,2.37
2018-08-25T12:38:07.383Z,2.40
2018-08-25T12:40:35.402Z,1.63
2018-08-25T12:43:03.710Z,1.80
2018-08-25T12:45:31.997Z,1.87
2018-08-25T12:48:00.027Z,1.83
2018-08-25T12:50:28.143Z,1.80
2018-08-25T12:52:56.158Z,1.47
2018-08-25T12:55:24.247Z,1.87
2018-08-25T12:57:52.582Z,1.73
2018-08-25T13:00:20.864Z,1.73
2018-08-25T13:02:48.990Z,1.47
2018-08-25T13:05:17.024Z,1.43
2018-08-25T13:07:45.340Z,1.60
2018-08-25T13:10:13.379Z,1.40
2018-08-25T13:12:41.463Z,1.13
2018-08-25T13:15:11.070Z,1.30
2018-08-25T13:17:39.374Z,1.20
2018-08-25T13:20:07.453Z,1.20
2018-08-25T13:22:35.684Z,1.40
2018-08-25T13:25:04.023Z,1.10
2018-08-25T13:27:32.062Z,1.23
2018-08-25T13:30:00.355Z,1.20
2018-08-25T13:32:29.134Z,1.20
2018-08-25T13:34:57.175Z,1.33
2018-08-25T13:37:25.242Z,1.33
2018-08-25T13:39:53.313Z,1.53
2018-08-25T13:42:21.312Z,1.43
2018-08-25T13:44:49.382Z,2.00
2018-08-25T13:47:18.070Z,1.70
2018-08-25T13:49:46.294Z,1.23
2018-08-25T13:52:14.931Z,1.00
2018-08-25T13:54:44.267Z,1.37
2018-08-25T13:57:12.833Z,1.10
2018-08-25T13:59:41.576Z,1.00
2018-08-25T14:02:10.535Z,1.20
2018-08-25T14:04:38.950Z,1.50
2018-08-25T14:07:07.018Z,1.60
2018-08-25T14:09:36.482Z,1.30
2018-08-25T14:12:04.519Z,1.50
2018-08-25T14:14:33.571Z,1.60
2018-08-25T14:17:01.887Z,1.30
2018-08-25T14:19:29.925Z,1.37
2018-08-25T14:21:58.319Z,1.93
2018-08-25T14:24:26.800Z,1.47
2018-08-25T14:26:54.989Z,1.57
2018-08-25T14:29:23.013Z,1.60
2018-08-25T14:31:51.029Z,1.50
2018-08-25T14:34:19.063Z,1.53
2018-08-25T14:36:48.507Z,1.40
2018-08-25T14:39:16.526Z,1.50
2018-08-25T14:41:45.100Z,1.20
2018-08-25T14:44:13.171Z,1.77
2018-08-25T14:46:41.294Z,1.60
2018-08-25T14:49:09.408Z,2.50
2018-08-25T14:51:37.519Z,1.57
2018-08-25T14:54:05.555Z,2.70
2018-08-25T14:56:34.013Z,2.57
2018-08-25T14:59:02.404Z,2.60
2018-08-25T15:01:30.569Z,2.50
2018-08-25T15:03:58.689Z,2.23
2018-08-25T15:06:27.380Z,2.67
2018-08-25T15:08:55.462Z,3.20
2018-08-25T15:11:23.484Z,2.53
2018-08-25T15:13:51.791Z,3.43
2018-08-25T15:16:20.324Z,3.03
2018-08-25T15:18:48.378Z,2.40
2018-08-25T15:21:16.403Z,2.10
2018-08-25T15:23:44.589Z,2.07
2018-08-25T15:26:13.431Z,1.93
2018-08-25T15:28:41.893Z,1.53
2018-08-25T15:31:10.023Z,2.10
2018-08-25T15:33:38.083Z,1.73
2018-08-25T15:36:07.055Z,1.63
2018-08-25T15:38:35.296Z,2.13
2018-08-25T15:41:03.339Z,1.87
2018-08-25T15:43:31.427Z,1.77
2018-08-25T15:45:59.462Z,1.97
2018-08-25T15:48:27.552Z,1.57
2018-08-25T15:50:55.668Z,2.20
2018-08-25T15:53:23.696Z,1.77
2018-08-25T15:55:51.742Z,2.83
2018-08-25T15:58:19.981Z,2.37
2018-08-25T16:00:48.472Z,2.10
2018-08-25T16:03:18.274Z,1.80
2018-08-25T16:05:47.177Z,2.30
2018-08-25T16:08:15.284Z,1.87
2018-08-25T16:10:43.710Z,1.70
2018-08-25T16:13:11.770Z,1.40
2018-08-25T16:15:40.453Z,1.30
2018-08-25T16:18:08.504Z,1.40
2018-08-25T16:20:36.582Z,1.63
2018-08-25T16:23:05.124Z,1.57
2018-08-25T16:25:33.596Z,1.70
2018-08-25T16:28:01.708Z,1.43
2018-08-25T16:30:30.990Z,1.70
2018-08-25T16:32:59.047Z,1.43
2018-08-25T16:35:27.157Z,1.53
2018-08-25T16:37:55.218Z,2.30
2018-08-25T16:40:24.017Z,1.73
2018-08-25T16:42:52.596Z,3.20
2018-08-25T16:45:20.674Z,2.30
2018-08-25T16:47:48.684Z,2.93
2018-08-25T16:50:17.075Z,2.00
2018-08-25T16:52:45.180Z,2.40
2018-08-25T16:55:13.657Z,2.20
2018-08-25T16:57:41.759Z,2.03
2018-08-25T17:00:09.819Z,1.80
2018-08-25T17:02:39.475Z,1.70
2018-08-25T17:05:10.830Z,1.60
2018-08-25T17:07:38.851Z,2.23
2018-08-25T17:10:06.936Z,2.03
2018-08-25T17:12:35.440Z,1.60
2018-08-25T17:15:04.765Z,2.00
2018-08-25T17:17:33.308Z,1.70
2018-08-25T17:20:01.327Z,1.70
2018-08-25T17:22:29.335Z,1.50
2018-08-25T17:24:57.431Z,1.90
2018-08-25T17:27:25.824Z,1.50
2018-08-25T17:29:54.119Z,1.67
2018-08-25T17:32:22.133Z,1.70
2018-08-25T17:34:50.683Z,1.70
2018-08-25T17:37:19.228Z,1.80
2018-08-25T17:39:48.208Z,2.30
2018-08-25T17:42:18.141Z,2.43
2018-08-25T17:44:46.500Z,1.87
2018-08-25T17:47:14.627Z,1.60
2018-08-25T17:49:42.779Z,2.00
2018-08-25T17:52:10.917Z,2.37
2018-08-25T17:54:39.876Z,2.77
2018-08-25T17:57:07.976Z,2.20
2018-08-25T17:59:36.010Z,1.93
2018-08-25T18:02:04.471Z,1.80
2018-08-25T18:04:32.541Z,2.00
2018-08-25T18:07:01.068Z,1.83
2018-08-25T18:09:29.131Z,2.43
2018-08-25T18:11:57.812Z,2.07
2018-08-25T18:14:26.198Z,2.70
2018-08-25T18:16:55.003Z,2.27
2018-08-25T18:19:23.050Z,2.23
2018-08-25T18:21:51.787Z,2.07
2018-08-25T18:24:19.858Z,2.17
2018-08-25T18:26:48.249Z,2.67
2018-08-25T18:29:16.453Z,2.10
2018-08-25T18:31:44.631Z,2.37
2018-08-25T18:34:13.066Z,2.30
2018-08-25T18:36:41.556Z,2.77
2018-08-25T18:39:11.431Z,2.73
2018-08-25T18:41:41.282Z,2.47
2018-08-25T18:44:10.377Z,2.83
2018-08-25T18:46:38.859Z,2.40
2018-08-25T18:49:07.331Z,2.23
2018-08-25T18:51:35.814Z,2.87
2018-08-25T18:54:04.916Z,2.53
2018-08-25T18:56:33.295Z,1.80
2018-08-25T18:59:01.394Z,2.33
2018-08-25T19:01:30.682Z,2.23
2018-08-25T19:04:00.709Z,2.20
2018-08-25T19:06:29.431Z,2.17
2018-08-25T19:08:57.954Z,2.70
2018-08-25T19:11:26.121Z,2.40
2018-08-25T19:13:57.725Z,2.40
2018-08-25T19:16:26.405Z,2.70
2018-08-25T19:18:54.934Z,3.37
2018-08-25T19:21:23.424Z,2.77
2018-08-25T19:23:51.915Z,2.00
2018-08-25T19:26:20.489Z,2.20
2018-08-25T19:28:48.971Z,2.87
2018-08-25T19:31:27.734Z,2.27
2018-08-25T19:33:56.287Z,2.10
2018-08-25T19:36:24.962Z,2.57
2018-08-25T19:38:53.362Z,3.23
2018-08-25T19:41:22.135Z,2.60
2018-08-25T19:43:50.512Z,2.63
2018-08-25T19:46:19.622Z,3.33
2018-08-25T19:48:50.253Z,2.50
2018-08-25T19:51:19.799Z,2.70
2018-08-25T19:53:51.307Z,2.97
2018-08-25T19:56:20.294Z,2.77
2018-08-25T19:58:53.301Z,2.50
2018-08-25T20:01:23.412Z,2.80
2018-08-25T20:03:53.124Z,3.10
2018-08-25T20:06:21.575Z,3.20
2018-08-25T20:08:50.818Z,2.73
2018-08-25T20:11:19.482Z,3.20
2018-08-25T20:13:49.304Z,3.03
2018-08-25T20:16:18.449Z,3.60
2018-08-25T20:18:46.861Z,3.20
2018-08-25T20:21:15.368Z,3.40
2018-08-25T20:23:44.063Z,3.30
2018-08-25T20:26:12.503Z,3.53
2018-08-25T20:28:40.656Z,3.47
2018-08-25T20:31:11.217Z,2.90
2018-08-25T20:33:39.829Z,3.47
2018-08-25T20:36:08.513Z,4.07
2018-08-25T20:38:37.198Z,3.27
2018-08-25T20:41:06.301Z,3.47
2018-08-25T20:43:35.796Z,3.53
2018-08-25T20:47:33.896Z,2.93
2018-08-25T20:50:02.273Z,4.10
2018-08-25T20:52:31.068Z,3.53
2018-08-25T20:54:59.180Z,3.93
2018-08-25T20:57:27.232Z,4.57
2018-08-25T20:59:56.199Z,5.13
2018-08-25T21:02:24.488Z,5.77
2018-08-25T21:04:52.552Z,5.33
2018-08-25T21:07:20.592Z,5.50
2018-08-25T21:09:48.746Z,6.13
2018-08-25T21:12:17.107Z,6.43
2018-08-25T21:14:45.190Z,5.70
2018-08-25T21:17:13.263Z,6.23
2018-08-25T21:19:41.321Z,4.57
2018-08-25T21:22:09.506Z,4.70
2018-08-25T21:24:37.572Z,4.60
2018-08-25T21:27:05.718Z,5.40
2018-08-25T21:29:34.739Z,6.07
2018-08-25T21:32:03.219Z,5.27
2018-08-25T21:34:31.295Z,4.80
2018-08-25T21:36:59.354Z,5.03
2018-08-25T21:39:27.419Z,5.30
2018-08-25T21:41:55.478Z,5.60
2018-08-25T21:44:23.522Z,5.33
2018-08-25T21:46:51.598Z,5.40
2018-08-25T21:49:19.627Z,5.73
2018-08-25T21:51:47.693Z,5.03
2018-08-25T21:54:15.847Z,5.70
2018-08-25T21:56:44.039Z,5.67
2018-08-25T21:59:12.085Z,5.50
2018-08-25T22:01:42.146Z,5.13
2018-08-25T22:04:11.427Z,5.60
2018-08-25T22:06:39.599Z,5.20
2018-08-25T22:09:08.591Z,5.73
2018-08-25T22:11:36.763Z,4.70
2018-08-25T22:14:04.797Z,4.63
2018-08-25T22:16:32.833Z,5.87
2018-08-25T22:19:01.144Z,5.37
2018-08-25T22:21:29.251Z,4.60
2018-08-25T22:23:57.526Z,6.10
2018-08-25T22:26:25.699Z,6.23
2018-08-25T22:28:54.137Z,6.73
2018-08-25T22:31:22.698Z,6.60
2018-08-25T22:33:50.730Z,5.47
2018-08-25T22:36:18.854Z,6.13
2018-08-25T22:38:47.046Z,5.50
2018-08-25T22:41:15.115Z,5.43
2018-08-25T22:43:43.163Z,5.53
2018-08-25T22:46:11.200Z,4.70
2018-08-25T22:48:39.895Z,4.70
2018-08-25T22:51:07.939Z,4.63
2018-08-25T22:53:35.962Z,4.33
2018-08-25T22:56:04.090Z,4.93
2018-08-25T22:58:32.163Z,3.97
2018-08-25T23:01:00.251Z,4.97
2018-08-25T23:03:28.324Z,4.03
2018-08-25T23:05:56.390Z,3.73
2018-08-25T23:08:24.475Z,4.83
2018-08-25T23:10:52.500Z,4.43
2018-08-25T23:13:20.535Z,3.97
2018-08-25T23:15:48.571Z,4.30
2018-08-25T23:18:16.592Z,3.77
2018-08-25T23:20:44.725Z,3.50
2018-08-25T23:23:12.786Z,3.53
2018-08-25T23:25:40.858Z,3.27
2018-08-25T23:28:08.890Z,3.77
2018-08-25T23:30:37.003Z,3.67
2018-08-25T23:33:05.192Z,4.77
2018-08-25T23:35:33.365Z,5.53
2018-08-25T23:38:01.417Z,4.20
2018-08-25T23:40:29.432Z,4.67
2018-08-25T23:42:57.466Z,5.07
2018-08-25T23:45:25.535Z,5.30
2018-08-25T23:47:53.560Z,4.33
2018-08-25T23:50:21.587Z,4.47
2018-08-25T23:52:49.619Z,4.40
2018-08-25T23:55:17.720Z,4.30
2018-08-25T23:57:45.799Z,4.40
